.
WxDataArchive / Data Records for 2009-12-02
2009-12-01 December 2009 2009-12-03

Data Records for Wednesday, 02 December 2009

Time	Temp	Chill	HIndex	Humid	Dewpt	 Wind 	HiWind	WindDir	Rain 	Barom 
-----	----	-----	------	-----	-----	------	------	-------	-----	----- 
00:00	38.5	38.5	38.5	74	30.9	0	2	248	0.00	29.937 
00:05	38.6	38.6	38.6	74	31.0	0	2	248	0.00	29.937 
00:10	38.6	38.6	38.6	73	30.7	0	2	248	0.00	29.937 
00:15	38.5	38.5	38.5	73	30.6	0	2	248	0.00	29.930 
00:20	38.5	38.5	38.5	73	30.6	0	2	248	0.00	29.930 
00:25	38.5	38.5	38.5	73	30.6	0	2	248	0.00	29.930 
00:30	38.3	38.3	38.3	73	30.4	0	2	248	0.00	29.933 
00:35	38.2	38.2	38.2	73	30.3	0	2	248	0.00	29.933 
00:40	38.2	38.2	38.2	73	30.3	0	2	248	0.00	29.933 
00:45	38.2	38.2	38.2	72	30.0	0	2	248	0.00	29.929 
00:50	38.2	38.2	38.2	72	30.0	0	2	248	0.00	29.929 
00:55	38.2	38.2	38.2	72	30.0	1	4	248	0.00	29.929 
01:00	38.3	38.3	38.3	71	29.7	0	3	270	0.00	29.930 
01:05	38.5	38.5	38.5	71	29.9	1	3	270	0.00	29.930 
01:10	38.5	38.5	38.5	71	29.9	0	2	270	0.00	29.930 
01:15	38.5	38.5	38.5	71	29.9	0	4	270	0.00	29.924 
01:20	38.3	38.3	38.3	70	29.4	0	3	248	0.00	29.924 
01:25	38.3	38.3	38.3	70	29.4	0	2	248	0.00	29.924 
01:30	38.2	38.2	38.2	71	29.6	0	3	248	0.00	29.927 
01:35	38.2	38.2	38.2	71	29.6	0	2	248	0.00	29.927 
01:40	37.9	37.9	37.9	71	29.4	0	1	248	0.00	29.927 
01:45	37.8	37.8	37.8	71	29.3	0	2	248	0.00	29.928 
01:50	37.6	37.6	37.6	71	29.1	0	2	248	0.00	29.928 
01:55	37.3	37.3	37.3	71	28.8	0	1	248	0.00	29.928 
02:00	37.2	37.2	37.2	72	29.0	0	0	---	0.00	29.922 
02:05	36.9	36.9	36.9	72	28.7	0	1	248	0.00	29.922 
02:10	36.8	36.8	36.8	72	28.6	0	0	---	0.00	29.922 
02:15	36.5	36.5	36.5	73	28.7	0	0	---	0.00	29.923 
02:20	36.2	36.2	36.2	73	28.4	0	0	---	0.00	29.923 
02:25	36.0	36.0	36.0	74	28.5	0	0	---	0.00	29.923 
02:30	35.9	35.9	35.9	74	28.4	0	0	---	0.00	29.915 
02:35	35.6	35.6	35.6	74	28.1	0	0	---	0.00	29.915 
02:40	35.2	35.2	35.2	75	28.1	0	0	---	0.00	29.915 
02:45	34.9	34.9	34.9	76	28.1	0	0	---	0.00	29.917 
02:50	34.6	34.6	34.6	77	28.1	0	0	---	0.00	29.917 
02:55	34.6	34.6	34.6	77	28.1	0	0	---	0.00	29.917 
03:00	34.4	34.4	34.4	77	27.9	0	0	---	0.00	29.917 
03:05	34.3	34.3	34.3	77	27.9	0	0	---	0.00	29.917 
03:10	34.0	34.0	34.0	77	27.6	0	0	---	0.00	29.917 
03:15	33.7	33.7	33.7	78	27.6	0	0	---	0.00	29.911 
03:20	33.4	33.4	33.4	79	27.6	0	0	---	0.00	29.911 
03:25	33.1	33.1	33.1	80	27.6	0	0	---	0.00	29.911 
03:30	32.8	32.8	32.8	80	27.3	0	0	---	0.00	29.907 
03:35	32.7	32.7	32.7	80	27.2	0	0	---	0.00	29.907 
03:40	32.4	32.4	32.4	81	27.2	0	0	---	0.00	29.907 
03:45	32.2	32.2	32.2	81	27.0	0	0	---	0.00	29.907 
03:50	31.9	31.9	31.9	82	27.0	0	0	---	0.00	29.907 
03:55	31.8	31.8	31.8	83	27.2	0	0	---	0.00	29.907 
04:00	31.5	31.5	31.5	83	26.9	0	0	---	0.00	29.898 
04:05	31.5	31.5	31.5	84	27.2	0	0	---	0.00	29.898 
04:10	31.3	31.3	31.3	84	27.0	0	0	---	0.00	29.898 
04:15	31.2	31.2	31.2	85	27.2	0	0	---	0.00	29.899 
04:20	30.9	30.9	30.9	85	26.9	0	0	---	0.00	29.899 
04:25	30.7	30.7	30.7	86	27.0	0	0	---	0.00	29.899 
04:30	30.6	30.6	30.6	86	26.9	0	0	---	0.00	29.898 
04:35	30.3	30.3	30.3	86	26.6	0	0	---	0.00	29.898 
04:40	30.1	30.1	30.1	86	26.4	0	0	---	0.00	29.898 
04:45	30.0	30.0	30.0	87	26.6	0	0	---	0.00	29.889 
04:50	29.8	29.8	29.8	87	26.4	0	0	---	0.00	29.889 
04:55	29.5	29.5	29.5	87	26.1	0	0	---	0.00	29.889 
05:00	29.4	29.4	29.4	88	26.3	0	0	---	0.00	29.888 
05:05	29.4	29.4	29.4	88	26.3	0	0	---	0.00	29.888 
05:10	29.3	29.3	29.3	88	26.2	0	0	---	0.00	29.888 
05:15	29.1	29.1	29.1	88	26.0	0	0	---	0.00	29.895 
05:20	29.0	29.0	29.0	88	25.9	0	0	---	0.00	29.895 
05:25	29.0	29.0	29.0	88	25.9	0	0	---	0.00	29.895 
05:30	28.8	28.8	28.8	88	25.7	0	0	---	0.00	29.893 
05:35	28.7	28.7	28.7	88	25.6	0	0	---	0.00	29.893 
05:40	28.7	28.7	28.7	88	25.6	0	0	---	0.00	29.893 
05:45	28.5	28.5	28.5	89	25.7	0	0	---	0.00	29.889 
05:50	28.5	28.5	28.5	89	25.7	0	0	---	0.00	29.889 
05:55	28.5	28.5	28.5	89	25.7	0	0	---	0.00	29.889 
06:00	28.7	28.7	28.7	90	26.1	0	0	---	0.00	29.888 
06:05	28.8	28.8	28.8	90	26.2	0	0	---	0.00	29.888 
06:10	29.0	29.0	29.0	90	26.4	0	0	---	0.00	29.888 
06:15	29.1	29.1	29.1	91	26.8	0	0	---	0.00	29.886 
06:20	29.1	29.1	29.1	90	26.5	0	0	---	0.00	29.886 
06:25	29.3	29.3	29.3	91	27.0	0	0	---	0.00	29.886 
06:30	29.4	29.4	29.4	91	27.1	0	0	---	0.00	29.879 
06:35	29.8	29.8	29.8	91	27.5	0	1	248	0.00	29.879 
06:40	30.0	30.0	30.0	91	27.7	0	0	---	0.00	29.879 
06:45	30.1	30.1	30.1	91	27.8	0	0	---	0.00	29.878 
06:50	30.1	30.1	30.1	91	27.8	0	0	---	0.00	29.878 
06:55	30.1	30.1	30.1	91	27.8	0	0	---	0.00	29.878 
07:00	30.1	30.1	30.1	91	27.8	0	0	---	0.00	29.869 
07:05	30.1	30.1	30.1	91	27.8	0	0	---	0.00	29.869 
07:10	30.3	30.3	30.3	91	28.0	0	1	248	0.00	29.869 
07:15	30.3	30.3	30.3	90	27.7	0	0	---	0.00	29.871 
07:20	30.4	30.4	30.4	90	27.8	0	0	---	0.00	29.871 
07:25	30.4	30.4	30.4	90	27.8	0	0	---	0.00	29.871 
07:30	30.6	30.6	30.6	90	28.0	0	0	---	0.00	29.858 
07:35	30.7	30.7	30.7	90	28.1	0	0	---	0.00	29.858 
07:40	30.7	30.7	30.7	90	28.1	0	0	---	0.00	29.858 
07:45	30.7	30.7	30.7	90	28.1	0	0	---	0.00	29.860 
07:50	30.9	30.9	30.9	90	28.3	0	0	---	0.00	29.860 
07:55	30.9	30.9	30.9	90	28.3	0	0	---	0.00	29.860 
08:00	30.9	30.9	30.9	90	28.3	0	0	---	0.00	29.862 
08:05	30.9	30.9	30.9	90	28.3	0	0	---	0.00	29.862 
08:10	30.9	30.9	30.9	90	28.3	0	0	---	0.00	29.862 
08:15	30.9	30.9	30.9	90	28.3	0	0	---	0.00	29.867 
08:20	30.7	30.7	30.7	90	28.1	0	0	---	0.00	29.867 
08:25	30.7	30.7	30.7	90	28.1	0	0	---	0.00	29.867 
08:30	30.7	30.7	30.7	90	28.1	0	0	---	0.00	29.856 
08:35	30.9	30.9	30.9	90	28.3	0	0	---	0.00	29.856 
08:40	31.0	31.0	31.0	90	28.4	0	0	---	0.00	29.856 
08:45	31.0	31.0	31.0	90	28.4	0	0	---	0.00	29.843 
08:50	31.2	31.2	31.2	90	28.6	0	0	---	0.00	29.843 
08:55	31.5	31.5	31.5	90	28.9	0	0	---	0.00	29.843 
09:00	31.6	31.6	31.6	90	29.0	0	0	---	0.00	29.841 
09:05	31.8	31.8	31.8	90	29.2	0	0	---	0.00	29.841 
09:10	31.9	31.9	31.9	90	29.3	0	0	---	0.00	29.841 
09:15	32.1	32.1	32.1	90	29.5	0	0	---	0.00	29.849 
09:20	32.2	32.2	32.2	90	29.6	0	0	---	0.00	29.849 
09:25	32.4	32.4	32.4	90	29.8	0	0	---	0.00	29.849 
09:30	32.5	32.5	32.5	90	29.9	0	1	248	0.00	29.840 
09:35	32.7	32.7	32.7	89	29.8	0	2	248	0.00	29.840 
09:40	32.8	32.8	32.8	89	29.9	0	1	248	0.00	29.840 
09:45	32.9	32.9	32.9	88	29.7	0	2	248	0.00	29.840 
09:50	33.1	33.1	33.1	88	29.9	0	2	248	0.00	29.840 
09:55	33.4	33.4	33.4	88	30.2	0	2	248	0.00	29.840 
10:00	33.7	33.7	33.7	88	30.5	1	2	248	0.00	29.841 
10:05	33.8	33.8	33.8	87	30.3	1	2	248	0.00	29.841 
10:10	34.1	34.1	34.1	87	30.6	0	2	112	0.00	29.841 
10:15	34.3	34.3	34.3	86	30.6	0	3	112	0.00	29.831 
10:20	34.6	34.6	34.6	86	30.9	0	3	112	0.00	29.831 
10:25	34.9	34.9	34.9	85	30.9	0	1	112	0.00	29.831 
10:30	35.2	35.2	35.2	85	31.2	0	2	112	0.00	29.837 
10:35	35.3	35.3	35.3	85	31.2	0	4	90	0.00	29.837 
10:40	35.5	35.5	35.5	84	31.2	0	1	90	0.00	29.837 
10:45	35.6	35.6	35.6	84	31.3	0	2	90	0.00	29.839 
10:50	35.8	35.8	35.8	84	31.4	1	4	90	0.00	29.839 
10:55	35.8	35.8	35.8	83	31.2	1	3	90	0.00	29.839 
11:00	35.9	35.9	35.9	83	31.2	0	1	90	0.00	29.834 
11:05	36.0	36.0	36.0	84	31.6	0	2	90	0.00	29.834 
11:10	36.2	36.2	36.2	83	31.5	0	3	90	0.00	29.834 
11:15	36.2	36.2	36.2	84	31.8	0	2	90	0.00	29.822 
11:20	36.2	36.2	36.2	83	31.5	1	4	90	0.00	29.822 
11:25	36.2	36.2	36.2	84	31.8	0	2	90	0.00	29.822 
11:30	36.2	36.2	36.2	84	31.8	1	3	90	0.00	29.811 
11:35	36.3	36.3	36.3	84	31.9	0	2	90	0.00	29.811 
11:40	36.2	36.2	36.2	84	31.8	1	4	90	0.00	29.811 
11:45	36.2	36.2	36.2	85	32.1	1	5	90	0.00	29.790 
11:50	36.3	36.3	36.3	85	32.2	1	3	90	0.00	29.790 
11:55	36.3	36.3	36.3	84	31.9	1	4	90	0.00	29.790 
12:00	36.3	36.3	36.3	84	31.9	0	1	90	0.00	29.776 
12:05	36.5	36.5	36.5	84	32.1	0	2	90	0.00	29.776 
12:10	36.5	36.5	36.5	84	32.1	0	3	90	0.00	29.776 
12:15	36.6	36.6	36.6	84	32.2	0	2	90	0.00	29.760 
12:20	36.8	36.8	36.8	83	32.1	0	2	90	0.00	29.760 
12:25	36.9	36.9	36.9	83	32.2	1	4	90	0.00	29.760 
12:30	37.0	37.0	37.0	82	32.0	2	4	90	0.00	29.740 
12:35	37.2	37.2	37.2	82	32.2	0	2	90	0.00	29.740 
12:40	37.3	37.3	37.3	82	32.3	0	2	90	0.00	29.740 
12:45	37.5	37.5	37.5	82	32.5	0	1	90	0.00	29.716 
12:50	37.6	37.6	37.6	81	32.3	0	2	90	0.00	29.716 
12:55	37.9	37.9	37.9	81	32.6	0	1	90	0.00	29.716 
13:00	38.0	38.0	38.0	81	32.7	0	2	90	0.00	29.696 
13:05	38.2	38.2	38.2	81	32.9	1	4	135	0.00	29.696 
13:10	38.2	38.2	38.2	81	32.9	0	2	135	0.00	29.696 
13:15	38.2	38.2	38.2	81	32.9	1	4	135	0.00	29.691 
13:20	38.2	38.2	38.2	81	32.9	2	4	112	0.00	29.691 
13:25	38.3	38.3	38.3	81	33.0	2	4	112	0.00	29.691 
13:30	38.3	38.3	38.3	81	33.0	2	5	112	0.00	29.687 
13:35	38.3	38.3	38.3	81	33.0	3	6	90	0.00	29.687 
13:40	38.3	38.3	38.3	81	33.0	2	5	112	0.00	29.687 
13:45	38.3	38.3	38.3	82	33.3	2	7	112	0.00	29.678 
13:50	38.2	38.2	38.2	83	33.5	2	7	90	0.00	29.678 
13:55	38.2	38.2	38.2	84	33.8	1	4	112	0.00	29.678 
14:00	38.2	38.2	38.2	84	33.8	1	5	112	0.00	29.664 
14:05	38.2	38.2	38.2	84	33.8	0	3	90	0.00	29.664 
14:10	38.2	38.2	38.2	84	33.8	1	5	90	0.00	29.664 
14:15	38.3	38.3	38.3	85	34.2	0	2	112	0.00	29.648 
14:20	38.3	38.3	38.3	85	34.2	1	3	112	0.00	29.648 
14:25	38.3	38.3	38.3	85	34.2	1	4	112	0.00	29.648 
14:30	38.5	38.5	38.5	86	34.7	0	2	112	0.00	29.633 
14:35	38.5	38.5	38.5	85	34.4	1	3	112	0.00	29.633 
14:40	38.5	38.5	38.5	85	34.4	1	3	68	0.00	29.633 
14:45	38.5	38.5	38.5	86	34.7	0	3	90	0.00	29.607 
14:50	38.6	38.6	38.6	85	34.5	1	3	112	0.00	29.607 
14:55	38.6	38.6	38.6	85	34.5	0	3	68	0.00	29.607 
15:00	38.8	38.8	38.8	86	35.0	0	2	68	0.00	29.589 
15:05	38.8	38.8	38.8	86	35.0	0	3	68	0.00	29.589 
15:10	38.8	38.8	38.8	85	34.7	1	5	135	0.00	29.589 
15:15	38.9	38.9	38.9	85	34.8	0	2	112	0.00	29.576 
15:20	39.1	39.1	39.1	85	35.0	1	3	45	0.01	29.576 
15:25	39.2	39.2	39.2	85	35.1	0	2	180	0.00	29.576 
15:30	39.2	39.2	39.2	85	35.1	0	2	0	0.00	29.562 
15:35	39.3	39.3	39.3	85	35.2	1	3	90	0.00	29.562 
15:40	39.3	39.3	39.3	85	35.2	0	2	68	0.00	29.562 
15:45	39.3	39.3	39.3	85	35.2	0	2	45	0.01	29.549 
15:50	39.3	39.3	39.3	85	35.2	0	3	45	0.00	29.549 
15:55	39.3	39.3	39.3	85	35.2	0	3	45	0.00	29.549 
16:00	39.3	39.3	39.3	85	35.2	0	3	90	0.01	29.541 
16:05	39.3	39.3	39.3	85	35.2	1	4	90	0.00	29.541 
16:10	39.3	39.3	39.3	85	35.2	1	3	112	0.00	29.541 
16:15	39.3	39.3	39.3	85	35.2	1	4	22	0.01	29.545 
16:20	39.3	39.3	39.3	85	35.2	1	4	112	0.00	29.545 
16:25	39.2	39.2	39.2	86	35.4	1	5	90	0.00	29.545 
16:30	39.2	39.2	39.2	86	35.4	1	3	90	0.00	29.544 
16:35	39.1	39.1	39.1	87	35.6	1	5	135	0.01	29.544 
16:40	38.9	38.9	38.9	87	35.4	1	3	22	0.00	29.544 
16:45	38.9	38.9	38.9	88	35.7	1	4	90	0.01	29.545 
16:50	38.8	38.8	38.8	88	35.6	0	2	45	0.01	29.545 
16:55	38.6	38.6	38.6	89	35.6	0	4	45	0.01	29.545 
17:00	38.6	38.6	38.6	89	35.6	1	3	90	0.01	29.531 
17:05	38.5	38.5	38.5	90	35.8	0	5	68	0.01	29.531 
17:10	38.5	38.5	38.5	90	35.8	1	5	68	0.02	29.531 
17:15	38.3	38.3	38.3	90	35.6	0	2	68	0.01	29.519 
17:20	38.3	38.3	38.3	91	35.9	0	2	135	0.01	29.519 
17:25	38.2	38.2	38.2	91	35.8	0	2	135	0.01	29.519 
17:30	38.2	38.2	38.2	91	35.8	0	2	45	0.01	29.513 
17:35	38.2	38.2	38.2	92	36.1	0	3	22	0.01	29.513 
17:40	38.2	38.2	38.2	92	36.1	0	1	22	0.00	29.513 
17:45	38.2	38.2	38.2	92	36.1	1	4	22	0.01	29.500 
17:50	38.2	38.2	38.2	92	36.1	0	2	22	0.01	29.500 
17:55	38.0	38.0	38.0	92	35.9	0	3	338	0.01	29.500 
18:00	38.0	38.0	38.0	93	36.2	1	3	22	0.02	29.498 
18:05	38.0	38.0	38.0	93	36.2	1	3	0	0.01	29.498 
18:10	38.2	38.2	38.2	93	36.4	1	3	315	0.01	29.498 
18:15	38.2	38.2	38.2	93	36.4	1	2	0	0.01	29.488 
18:20	38.2	38.2	38.2	93	36.4	1	7	22	0.01	29.488 
18:25	38.2	38.2	38.2	93	36.4	1	3	22	0.01	29.488 
18:30	38.2	38.2	38.2	93	36.4	1	5	0	0.01	29.482 
18:35	38.2	38.2	38.2	93	36.4	1	3	315	0.00	29.482 
18:40	38.2	38.2	38.2	94	36.6	0	2	315	0.01	29.482 
18:45	38.2	38.2	38.2	94	36.6	1	3	45	0.01	29.471 
18:50	38.2	38.2	38.2	94	36.6	1	4	45	0.01	29.471 
18:55	38.2	38.2	38.2	94	36.6	1	5	68	0.02	29.471 
19:00	38.2	38.2	38.2	94	36.6	1	3	90	0.01	29.467 
19:05	38.3	38.3	38.3	94	36.7	1	5	338	0.01	29.467 
19:10	38.3	38.3	38.3	94	36.7	1	5	112	0.01	29.467 
19:15	38.3	38.3	38.3	94	36.7	1	5	112	0.01	29.463 
19:20	38.3	38.3	38.3	94	36.7	1	5	45	0.02	29.463 
19:25	38.5	38.5	38.5	94	36.9	1	5	22	0.01	29.463 
19:30	38.5	38.5	38.5	94	36.9	0	2	270	0.01	29.450 
19:35	38.5	38.5	38.5	94	36.9	1	4	338	0.01	29.450 
19:40	38.5	38.5	38.5	94	36.9	1	3	0	0.01	29.450 
19:45	38.6	38.6	38.6	94	37.0	1	4	0	0.01	29.434 
19:50	38.6	38.6	38.6	94	37.0	1	2	0	0.01	29.434 
19:55	38.6	38.6	38.6	94	37.0	1	5	45	0.00	29.434 
20:00	38.6	38.6	38.6	94	37.0	1	3	22	0.00	29.433 
20:05	38.6	38.6	38.6	94	37.0	1	3	338	0.01	29.433 
20:10	38.6	38.6	38.6	95	37.3	1	5	338	0.01	29.433 
20:15	38.6	38.6	38.6	95	37.3	1	4	338	0.00	29.414 
20:20	38.8	38.8	38.8	95	37.5	1	5	0	0.00	29.414 
20:25	38.8	38.8	38.8	95	37.5	1	3	0	0.01	29.414 
20:30	38.8	38.8	38.8	95	37.5	1	4	338	0.00	29.406 
20:35	38.8	38.8	38.8	95	37.5	1	3	338	0.00	29.406 
20:40	38.8	38.8	38.8	95	37.5	2	6	270	0.00	29.406 
20:45	38.8	38.8	38.8	95	37.5	1	5	315	0.00	29.399 
20:50	38.8	38.8	38.8	95	37.5	1	5	315	0.00	29.399 
20:55	38.8	38.8	38.8	95	37.5	1	5	315	0.00	29.399 
21:00	38.8	38.8	38.8	95	37.5	1	7	338	0.00	29.394 
21:05	38.8	38.8	38.8	95	37.5	2	4	22	0.00	29.394 
21:10	38.8	38.8	38.8	95	37.5	1	4	292	0.00	29.394 
21:15	38.8	38.8	38.8	95	37.5	1	4	248	0.00	29.408 
21:20	38.8	38.8	38.8	95	37.5	1	4	22	0.00	29.408 
21:25	38.8	38.8	38.8	95	37.5	1	4	22	0.00	29.408 
21:30	38.8	38.8	38.8	95	37.5	1	6	315	0.01	29.405 
21:35	38.8	38.8	38.8	95	37.5	1	4	315	0.00	29.405 
21:40	38.8	38.8	38.8	95	37.5	1	5	0	0.01	29.405 
21:45	38.6	38.6	38.6	95	37.3	1	4	270	0.00	29.398 
21:50	38.6	38.6	38.6	94	37.0	2	5	0	0.00	29.398 
21:55	38.6	38.6	38.6	94	37.0	2	4	0	0.00	29.398 
22:00	38.6	38.6	38.6	94	37.0	2	5	0	0.00	29.389 
22:05	38.8	38.8	38.8	94	37.2	2	6	338	0.00	29.389 
22:10	38.8	38.8	38.8	94	37.2	2	5	270	0.00	29.389 
22:15	38.8	38.8	38.8	94	37.2	1	4	22	0.00	29.389 
22:20	38.8	38.8	38.8	94	37.2	1	5	22	0.01	29.389 
22:25	38.9	38.9	38.9	94	37.3	2	4	315	0.00	29.389 
22:30	38.9	38.9	38.9	94	37.3	1	3	315	0.00	29.384 
22:35	38.9	38.9	38.9	94	37.3	1	4	0	0.00	29.384 
22:40	38.9	38.9	38.9	94	37.3	1	4	22	0.00	29.384 
22:45	38.9	38.9	38.9	94	37.3	2	7	292	0.00	29.384 
22:50	39.1	39.1	39.1	94	37.5	2	6	22	0.00	29.384 
22:55	39.1	39.1	39.1	94	37.5	1	3	338	0.00	29.384 
23:00	39.2	39.2	39.2	94	37.6	1	5	338	0.00	29.393 
23:05	39.2	39.2	39.2	94	37.6	2	6	0	0.00	29.393 
23:10	39.3	39.3	39.3	94	37.7	1	5	338	0.00	29.393 
23:15	39.3	39.3	39.3	94	37.7	1	4	338	0.01	29.402 
23:20	39.5	39.5	39.5	94	37.9	1	5	338	0.00	29.402 
23:25	39.5	39.5	39.5	94	37.9	1	4	0	0.00	29.402 
23:30	39.5	39.5	39.5	94	37.9	1	5	22	0.00	29.412 
23:35	39.5	39.5	39.5	94	37.9	1	4	0	0.01	29.412 
23:40	39.5	39.5	39.5	94	37.9	2	5	338	0.00	29.412 
23:45	39.3	39.3	39.3	93	37.4	2	7	315	0.00	29.416 
23:50	39.2	39.2	39.2	93	37.3	1	4	338	0.00	29.416 
23:55	39.1	39.1	39.1	93	37.2	2	5	0	0.01	29.416 

CoCoRaHS
IN-AL-39
A2 Web Hosting
Creative Commons License
GoDaddy
search engine by freefind advanced

loaded 2018-11-16 00:49:51 • last modified 2010-11-18 10:43:29
Privacy PolicyDisclaimer
• wx.awcolley.com is powered by PmWiki v.2002016 •
• all content (unless otherwise noted) © 2018 A W Colley